sensor_id;sensor_type;location;lat;lon;timestamp;P1;durP1;ratioP1;P2;durP2;ratioP2
65071;SDS011;51663;52.310;17.016;2024-03-08T00:01:27;114.20;;;49.53;;
65071;SDS011;51663;52.310;17.016;2024-03-08T00:04:29;120.57;;;48.87;;
65071;SDS011;51663;52.310;17.016;2024-03-08T00:07:32;113.87;;;48.23;;
65071;SDS011;51663;52.310;17.016;2024-03-08T00:10:34;101.83;;;44.47;;
65071;SDS011;51663;52.310;17.016;2024-03-08T00:13:37;109.00;;;46.80;;
65071;SDS011;51663;52.310;17.016;2024-03-08T00:16:39;115.53;;;48.13;;
65071;SDS011;51663;52.310;17.016;2024-03-08T00:19:44;121.73;;;51.43;;
65071;SDS011;51663;52.310;17.016;2024-03-08T00:22:46;129.07;;;51.27;;
65071;SDS011;51663;52.310;17.016;2024-03-08T00:25:50;187.97;;;66.30;;
65071;SDS011;51663;52.310;17.016;2024-03-08T00:28:52;223.30;;;78.03;;
65071;SDS011;51663;52.310;17.016;2024-03-08T00:31:56;173.27;;;64.90;;
65071;SDS011;51663;52.310;17.016;2024-03-08T00:34:59;148.53;;;57.23;;
65071;SDS011;51663;52.310;17.016;2024-03-08T00:38:01;169.33;;;67.90;;
65071;SDS011;51663;52.310;17.016;2024-03-08T00:41:03;148.67;;;57.70;;
65071;SDS011;51663;52.310;17.016;2024-03-08T00:44:06;145.77;;;57.43;;
65071;SDS011;51663;52.310;17.016;2024-03-08T00:47:08;153.03;;;56.57;;
65071;SDS011;51663;52.310;17.016;2024-03-08T00:50:11;140.83;;;54.37;;
65071;SDS011;51663;52.310;17.016;2024-03-08T00:53:15;124.47;;;50.00;;
65071;SDS011;51663;52.310;17.016;2024-03-08T00:56:17;118.50;;;48.20;;
65071;SDS011;51663;52.310;17.016;2024-03-08T00:59:19;121.37;;;49.60;;
65071;SDS011;51663;52.310;17.016;2024-03-08T01:02:22;115.73;;;48.87;;
65071;SDS011;51663;52.310;17.016;2024-03-08T01:05:24;127.83;;;54.20;;
65071;SDS011;51663;52.310;17.016;2024-03-08T01:08:27;110.93;;;47.40;;
65071;SDS011;51663;52.310;17.016;2024-03-08T01:11:29;133.03;;;56.43;;
65071;SDS011;51663;52.310;17.016;2024-03-08T01:14:32;111.00;;;50.10;;
65071;SDS011;51663;52.310;17.016;2024-03-08T01:17:35;103.73;;;46.23;;
65071;SDS011;51663;52.310;17.016;2024-03-08T01:20:38;106.83;;;47.03;;
65071;SDS011;51663;52.310;17.016;2024-03-08T01:23:43;105.33;;;47.57;;
65071;SDS011;51663;52.310;17.016;2024-03-08T01:26:45;122.43;;;54.40;;
65071;SDS011;51663;52.310;17.016;2024-03-08T01:29:48;122.93;;;53.43;;
65071;SDS011;51663;52.310;17.016;2024-03-08T01:32:50;125.23;;;55.97;;
65071;SDS011;51663;52.310;17.016;2024-03-08T01:35:53;120.83;;;50.77;;
65071;SDS011;51663;52.310;17.016;2024-03-08T01:38:56;114.53;;;49.37;;
65071;SDS011;51663;52.310;17.016;2024-03-08T01:41:59;115.60;;;52.17;;
65071;SDS011;51663;52.310;17.016;2024-03-08T01:45:04;105.33;;;46.73;;
65071;SDS011;51663;52.310;17.016;2024-03-08T01:48:07;114.97;;;51.57;;
65071;SDS011;51663;52.310;17.016;2024-03-08T01:51:10;106.30;;;47.33;;
65071;SDS011;51663;52.310;17.016;2024-03-08T01:54:13;99.23;;;44.40;;
65071;SDS011;51663;52.310;17.016;2024-03-08T01:57:18;87.40;;;39.93;;
65071;SDS011;51663;52.310;17.016;2024-03-08T02:00:21;90.03;;;41.83;;
65071;SDS011;51663;52.310;17.016;2024-03-08T02:03:24;81.57;;;37.63;;
65071;SDS011;51663;52.310;17.016;2024-03-08T02:06:26;90.87;;;37.50;;
65071;SDS011;51663;52.310;17.016;2024-03-08T02:09:29;80.17;;;37.43;;
65071;SDS011;51663;52.310;17.016;2024-03-08T02:12:31;81.67;;;35.47;;
65071;SDS011;51663;52.310;17.016;2024-03-08T02:19:06;88.30;;;37.53;;
65071;SDS011;51663;52.310;17.016;2024-03-08T02:22:13;81.67;;;36.57;;
65071;SDS011;51663;52.310;17.016;2024-03-08T02:25:16;85.87;;;38.73;;
65071;SDS011;51663;52.310;17.016;2024-03-08T02:28:19;82.30;;;36.90;;
65071;SDS011;51663;52.310;17.016;2024-03-08T02:31:22;85.03;;;35.53;;
65071;SDS011;51663;52.310;17.016;2024-03-08T02:34:24;85.80;;;35.50;;
65071;SDS011;51663;52.310;17.016;2024-03-08T02:37:27;83.77;;;36.47;;
65071;SDS011;51663;52.310;17.016;2024-03-08T02:40:29;77.53;;;35.77;;
65071;SDS011;51663;52.310;17.016;2024-03-08T02:43:32;79.10;;;36.17;;
65071;SDS011;51663;52.310;17.016;2024-03-08T02:46:35;89.67;;;36.53;;
65071;SDS011;51663;52.310;17.016;2024-03-08T02:49:37;77.43;;;34.77;;
65071;SDS011;51663;52.310;17.016;2024-03-08T02:52:40;73.20;;;33.67;;
65071;SDS011;51663;52.310;17.016;2024-03-08T02:55:43;79.33;;;34.77;;
65071;SDS011;51663;52.310;17.016;2024-03-08T02:58:45;74.47;;;36.00;;
65071;SDS011;51663;52.310;17.016;2024-03-08T03:01:50;79.60;;;36.33;;
65071;SDS011;51663;52.310;17.016;2024-03-08T03:04:52;74.67;;;34.70;;
65071;SDS011;51663;52.310;17.016;2024-03-08T03:07:55;77.17;;;34.30;;
65071;SDS011;51663;52.310;17.016;2024-03-08T03:10:59;74.63;;;34.77;;
65071;SDS011;51663;52.310;17.016;2024-03-08T03:14:02;77.23;;;34.83;;
65071;SDS011;51663;52.310;17.016;2024-03-08T03:17:04;71.30;;;32.87;;
65071;SDS011;51663;52.310;17.016;2024-03-08T03:20:07;72.23;;;32.53;;
65071;SDS011;51663;52.310;17.016;2024-03-08T03:23:15;74.97;;;33.67;;
65071;SDS011;51663;52.310;17.016;2024-03-08T03:26:23;71.37;;;33.10;;
65071;SDS011;51663;52.310;17.016;2024-03-08T03:29:25;72.57;;;32.17;;
65071;SDS011;51663;52.310;17.016;2024-03-08T03:32:28;75.07;;;34.17;;
65071;SDS011;51663;52.310;17.016;2024-03-08T03:35:30;72.47;;;32.93;;
65071;SDS011;51663;52.310;17.016;2024-03-08T03:38:32;73.20;;;32.47;;
65071;SDS011;51663;52.310;17.016;2024-03-08T03:41:36;71.90;;;33.93;;
65071;SDS011;51663;52.310;17.016;2024-03-08T03:44:39;71.00;;;33.90;;
65071;SDS011;51663;52.310;17.016;2024-03-08T03:47:42;72.50;;;31.53;;
65071;SDS011;51663;52.310;17.016;2024-03-08T03:50:45;73.53;;;32.77;;
65071;SDS011;51663;52.310;17.016;2024-03-08T03:53:47;82.83;;;33.30;;
65071;SDS011;51663;52.310;17.016;2024-03-08T03:56:50;73.80;;;32.17;;
65071;SDS011;51663;52.310;17.016;2024-03-08T03:59:54;70.33;;;31.23;;
65071;SDS011;51663;52.310;17.016;2024-03-08T04:02:57;72.30;;;32.27;;
65071;SDS011;51663;52.310;17.016;2024-03-08T04:06:05;75.83;;;33.40;;
65071;SDS011;51663;52.310;17.016;2024-03-08T04:09:07;86.30;;;36.00;;
65071;SDS011;51663;52.310;17.016;2024-03-08T04:12:10;70.70;;;33.20;;
65071;SDS011;51663;52.310;17.016;2024-03-08T04:15:12;69.93;;;31.73;;
65071;SDS011;51663;52.310;17.016;2024-03-08T04:18:15;65.90;;;30.87;;
65071;SDS011;51663;52.310;17.016;2024-03-08T04:21:17;68.50;;;31.70;;
65071;SDS011;51663;52.310;17.016;2024-03-08T04:24:21;70.70;;;31.67;;
65071;SDS011;51663;52.310;17.016;2024-03-08T04:27:24;66.33;;;30.90;;
65071;SDS011;51663;52.310;17.016;2024-03-08T04:30:26;67.97;;;30.87;;
65071;SDS011;51663;52.310;17.016;2024-03-08T04:33:30;70.50;;;31.40;;
65071;SDS011;51663;52.310;17.016;2024-03-08T04:36:32;77.03;;;33.50;;
65071;SDS011;51663;52.310;17.016;2024-03-08T04:39:36;68.70;;;32.30;;
65071;SDS011;51663;52.310;17.016;2024-03-08T04:42:38;71.00;;;31.33;;
65071;SDS011;51663;52.310;17.016;2024-03-08T04:45:44;75.57;;;30.93;;
65071;SDS011;51663;52.310;17.016;2024-03-08T04:48:46;72.20;;;31.03;;
65071;SDS011;51663;52.310;17.016;2024-03-08T04:51:49;61.77;;;29.97;;
65071;SDS011;51663;52.310;17.016;2024-03-08T04:54:51;64.70;;;31.67;;
65071;SDS011;51663;52.310;17.016;2024-03-08T04:57:53;74.97;;;32.50;;
65071;SDS011;51663;52.310;17.016;2024-03-08T05:00:55;69.87;;;32.40;;
65071;SDS011;51663;52.310;17.016;2024-03-08T05:03:58;62.30;;;31.20;;
65071;SDS011;51663;52.310;17.016;2024-03-08T05:07:06;68.30;;;33.10;;
65071;SDS011;51663;52.310;17.016;2024-03-08T05:10:09;68.33;;;31.43;;
65071;SDS011;51663;52.310;17.016;2024-03-08T05:13:11;68.67;;;32.07;;
65071;SDS011;51663;52.310;17.016;2024-03-08T05:16:15;65.97;;;30.43;;
65071;SDS011;51663;52.310;17.016;2024-03-08T05:19:17;66.30;;;29.67;;
65071;SDS011;51663;52.310;17.016;2024-03-08T05:22:21;65.70;;;29.60;;
65071;SDS011;51663;52.310;17.016;2024-03-08T05:25:23;71.83;;;32.30;;
65071;SDS011;51663;52.310;17.016;2024-03-08T05:28:26;73.03;;;31.70;;
65071;SDS011;51663;52.310;17.016;2024-03-08T05:31:28;81.30;;;32.27;;
65071;SDS011;51663;52.310;17.016;2024-03-08T05:34:33;78.23;;;31.77;;
65071;SDS011;51663;52.310;17.016;2024-03-08T05:37:36;78.67;;;29.97;;
65071;SDS011;51663;52.310;17.016;2024-03-08T05:40:38;84.27;;;31.73;;
65071;SDS011;51663;52.310;17.016;2024-03-08T05:43:40;78.13;;;30.53;;
65071;SDS011;51663;52.310;17.016;2024-03-08T05:46:43;77.37;;;33.50;;
65071;SDS011;51663;52.310;17.016;2024-03-08T05:49:46;80.63;;;32.30;;
65071;SDS011;51663;52.310;17.016;2024-03-08T05:52:48;71.17;;;31.17;;
65071;SDS011;51663;52.310;17.016;2024-03-08T05:55:51;76.23;;;31.83;;
65071;SDS011;51663;52.310;17.016;2024-03-08T05:58:53;73.07;;;31.90;;
65071;SDS011;51663;52.310;17.016;2024-03-08T06:01:55;87.33;;;33.07;;
65071;SDS011;51663;52.310;17.016;2024-03-08T06:04:58;93.50;;;33.50;;
65071;SDS011;51663;52.310;17.016;2024-03-08T06:08:00;93.87;;;33.93;;
65071;SDS011;51663;52.310;17.016;2024-03-08T06:11:03;86.77;;;31.83;;
65071;SDS011;51663;52.310;17.016;2024-03-08T06:14:07;94.13;;;33.33;;
65071;SDS011;51663;52.310;17.016;2024-03-08T06:17:09;85.10;;;33.67;;
65071;SDS011;51663;52.310;17.016;2024-03-08T06:20:12;91.00;;;32.97;;
65071;SDS011;51663;52.310;17.016;2024-03-08T06:23:16;106.30;;;40.53;;
65071;SDS011;51663;52.310;17.016;2024-03-08T06:26:20;101.90;;;41.33;;
65071;SDS011;51663;52.310;17.016;2024-03-08T06:29:23;80.60;;;33.93;;
65071;SDS011;51663;52.310;17.016;2024-03-08T06:32:26;73.57;;;33.83;;
65071;SDS011;51663;52.310;17.016;2024-03-08T06:35:28;72.13;;;33.87;;
65071;SDS011;51663;52.310;17.016;2024-03-08T06:38:33;86.10;;;36.17;;
65071;SDS011;51663;52.310;17.016;2024-03-08T06:41:36;69.90;;;34.10;;
65071;SDS011;51663;52.310;17.016;2024-03-08T06:44:39;77.37;;;36.73;;
65071;SDS011;51663;52.310;17.016;2024-03-08T06:47:51;77.20;;;36.77;;
65071;SDS011;51663;52.310;17.016;2024-03-08T06:50:53;75.13;;;37.87;;
65071;SDS011;51663;52.310;17.016;2024-03-08T06:53:56;85.90;;;41.47;;
65071;SDS011;51663;52.310;17.016;2024-03-08T06:56:58;73.67;;;37.80;;
65071;SDS011;51663;52.310;17.016;2024-03-08T07:00:02;76.40;;;39.27;;
65071;SDS011;51663;52.310;17.016;2024-03-08T07:03:07;81.07;;;38.53;;
65071;SDS011;51663;52.310;17.016;2024-03-08T07:06:14;77.57;;;37.17;;
65071;SDS011;51663;52.310;17.016;2024-03-08T07:09:16;80.83;;;41.40;;
65071;SDS011;51663;52.310;17.016;2024-03-08T07:12:19;80.27;;;40.97;;
65071;SDS011;51663;52.310;17.016;2024-03-08T07:15:22;76.03;;;38.40;;
65071;SDS011;51663;52.310;17.016;2024-03-08T07:18:25;79.43;;;38.93;;
65071;SDS011;51663;52.310;17.016;2024-03-08T07:21:28;77.67;;;38.17;;
65071;SDS011;51663;52.310;17.016;2024-03-08T07:24:31;80.10;;;37.87;;
65071;SDS011;51663;52.310;17.016;2024-03-08T07:28:07;78.17;;;38.33;;
65071;SDS011;51663;52.310;17.016;2024-03-08T07:31:14;84.33;;;39.80;;
65071;SDS011;51663;52.310;17.016;2024-03-08T07:34:17;77.67;;;38.60;;
65071;SDS011;51663;52.310;17.016;2024-03-08T07:37:19;78.60;;;38.57;;
65071;SDS011;51663;52.310;17.016;2024-03-08T07:40:22;77.93;;;36.97;;
65071;SDS011;51663;52.310;17.016;2024-03-08T07:43:25;86.50;;;42.33;;
65071;SDS011;51663;52.310;17.016;2024-03-08T07:46:27;72.90;;;36.97;;
65071;SDS011;51663;52.310;17.016;2024-03-08T07:49:33;77.27;;;38.97;;
65071;SDS011;51663;52.310;17.016;2024-03-08T07:52:36;70.47;;;36.23;;
65071;SDS011;51663;52.310;17.016;2024-03-08T07:55:38;73.47;;;35.40;;
65071;SDS011;51663;52.310;17.016;2024-03-08T07:58:44;70.50;;;36.03;;
65071;SDS011;51663;52.310;17.016;2024-03-08T08:01:47;73.27;;;38.43;;
65071;SDS011;51663;52.310;17.016;2024-03-08T08:04:49;71.93;;;37.40;;
65071;SDS011;51663;52.310;17.016;2024-03-08T08:07:52;63.13;;;35.03;;
65071;SDS011;51663;52.310;17.016;2024-03-08T08:10:55;64.77;;;34.30;;
65071;SDS011;51663;52.310;17.016;2024-03-08T08:13:58;61.23;;;32.03;;
65071;SDS011;51663;52.310;17.016;2024-03-08T08:17:01;63.87;;;31.33;;
65071;SDS011;51663;52.310;17.016;2024-03-08T08:20:06;70.67;;;33.23;;
65071;SDS011;51663;52.310;17.016;2024-03-08T08:23:09;62.57;;;31.53;;
65071;SDS011;51663;52.310;17.016;2024-03-08T08:26:13;59.70;;;30.30;;
65071;SDS011;51663;52.310;17.016;2024-03-08T08:29:15;53.13;;;29.23;;
65071;SDS011;51663;52.310;17.016;2024-03-08T08:32:18;50.67;;;27.83;;
65071;SDS011;51663;52.310;17.016;2024-03-08T08:35:21;54.03;;;25.87;;
65071;SDS011;51663;52.310;17.016;2024-03-08T08:38:24;50.20;;;26.90;;
65071;SDS011;51663;52.310;17.016;2024-03-08T08:41:26;41.13;;;24.40;;
65071;SDS011;51663;52.310;17.016;2024-03-08T08:44:31;42.87;;;23.70;;
65071;SDS011;51663;52.310;17.016;2024-03-08T08:47:34;56.57;;;25.23;;
65071;SDS011;51663;52.310;17.016;2024-03-08T08:50:37;45.07;;;25.33;;
65071;SDS011;51663;52.310;17.016;2024-03-08T08:53:41;39.80;;;21.67;;
65071;SDS011;51663;52.310;17.016;2024-03-08T08:56:48;55.53;;;25.93;;
65071;SDS011;51663;52.310;17.016;2024-03-08T08:59:51;39.63;;;22.53;;
65071;SDS011;51663;52.310;17.016;2024-03-08T09:02:53;39.53;;;22.30;;
65071;SDS011;51663;52.310;17.016;2024-03-08T09:05:57;40.00;;;22.47;;
65071;SDS011;51663;52.310;17.016;2024-03-08T09:08:59;37.97;;;21.23;;
65071;SDS011;51663;52.310;17.016;2024-03-08T09:12:06;35.23;;;20.80;;
65071;SDS011;51663;52.310;17.016;2024-03-08T09:15:09;35.03;;;21.03;;
65071;SDS011;51663;52.310;17.016;2024-03-08T09:18:14;32.90;;;18.70;;
65071;SDS011;51663;52.310;17.016;2024-03-08T09:21:16;45.20;;;20.40;;
65071;SDS011;51663;52.310;17.016;2024-03-08T09:24:20;33.47;;;17.20;;
65071;SDS011;51663;52.310;17.016;2024-03-08T09:27:23;21.97;;;13.37;;
65071;SDS011;51663;52.310;17.016;2024-03-08T09:30:25;29.93;;;14.03;;
65071;SDS011;51663;52.310;17.016;2024-03-08T09:33:27;27.23;;;15.80;;
65071;SDS011;51663;52.310;17.016;2024-03-08T09:36:30;29.43;;;17.70;;
65071;SDS011;51663;52.310;17.016;2024-03-08T09:39:34;30.20;;;16.67;;
65071;SDS011;51663;52.310;17.016;2024-03-08T09:42:37;29.27;;;16.63;;
65071;SDS011;51663;52.310;17.016;2024-03-08T09:45:40;28.87;;;15.30;;
65071;SDS011;51663;52.310;17.016;2024-03-08T09:48:43;25.70;;;14.80;;
65071;SDS011;51663;52.310;17.016;2024-03-08T09:51:48;26.60;;;17.03;;
65071;SDS011;51663;52.310;17.016;2024-03-08T09:54:54;33.10;;;15.43;;
65071;SDS011;51663;52.310;17.016;2024-03-08T09:57:57;29.33;;;14.77;;
65071;SDS011;51663;52.310;17.016;2024-03-08T10:01:19;27.90;;;14.27;;
65071;SDS011;51663;52.310;17.016;2024-03-08T10:04:23;24.90;;;13.97;;
65071;SDS011;51663;52.310;17.016;2024-03-08T10:07:25;26.17;;;13.73;;
65071;SDS011;51663;52.310;17.016;2024-03-08T10:10:28;21.60;;;12.20;;
65071;SDS011;51663;52.310;17.016;2024-03-08T10:13:31;21.20;;;13.60;;
65071;SDS011;51663;52.310;17.016;2024-03-08T10:16:34;20.60;;;11.73;;
65071;SDS011;51663;52.310;17.016;2024-03-08T10:19:36;26.23;;;12.87;;
65071;SDS011;51663;52.310;17.016;2024-03-08T10:22:41;22.47;;;12.87;;
65071;SDS011;51663;52.310;17.016;2024-03-08T10:26:10;20.53;;;12.67;;
65071;SDS011;51663;52.310;17.016;2024-03-08T10:29:13;18.07;;;12.57;;
65071;SDS011;51663;52.310;17.016;2024-03-08T10:32:17;22.27;;;13.10;;
65071;SDS011;51663;52.310;17.016;2024-03-08T10:35:20;25.27;;;12.53;;
65071;SDS011;51663;52.310;17.016;2024-03-08T10:38:22;23.13;;;13.27;;
65071;SDS011;51663;52.310;17.016;2024-03-08T10:41:25;20.47;;;13.40;;
65071;SDS011;51663;52.310;17.016;2024-03-08T10:44:48;19.37;;;13.30;;
65071;SDS011;51663;52.310;17.016;2024-03-08T10:51:30;22.83;;;11.63;;
65071;SDS011;51663;52.310;17.016;2024-03-08T10:54:33;19.63;;;12.00;;
65071;SDS011;51663;52.310;17.016;2024-03-08T10:57:36;19.23;;;11.33;;
65071;SDS011;51663;52.310;17.016;2024-03-08T11:00:41;15.17;;;10.97;;
65071;SDS011;51663;52.310;17.016;2024-03-08T11:03:43;14.30;;;10.60;;
65071;SDS011;51663;52.310;17.016;2024-03-08T11:06:47;20.00;;;11.73;;
65071;SDS011;51663;52.310;17.016;2024-03-08T11:09:49;18.40;;;11.47;;
65071;SDS011;51663;52.310;17.016;2024-03-08T11:12:52;18.43;;;11.60;;
65071;SDS011;51663;52.310;17.016;2024-03-08T11:15:54;17.93;;;11.43;;
65071;SDS011;51663;52.310;17.016;2024-03-08T11:19:06;19.93;;;11.63;;
65071;SDS011;51663;52.310;17.016;2024-03-08T11:22:29;16.30;;;10.63;;
65071;SDS011;51663;52.310;17.016;2024-03-08T11:28:43;17.47;;;11.27;;
65071;SDS011;51663;52.310;17.016;2024-03-08T11:31:45;20.27;;;11.57;;
65071;SDS011;51663;52.310;17.016;2024-03-08T11:34:49;18.47;;;10.77;;
65071;SDS011;51663;52.310;17.016;2024-03-08T11:37:52;17.20;;;10.93;;
65071;SDS011;51663;52.310;17.016;2024-03-08T11:40:56;17.40;;;12.57;;
65071;SDS011;51663;52.310;17.016;2024-03-08T11:44:03;18.23;;;12.00;;
65071;SDS011;51663;52.310;17.016;2024-03-08T11:47:08;18.00;;;11.03;;
65071;SDS011;51663;52.310;17.016;2024-03-08T11:50:13;23.77;;;11.43;;
65071;SDS011;51663;52.310;17.016;2024-03-08T11:53:15;20.63;;;12.37;;
65071;SDS011;51663;52.310;17.016;2024-03-08T11:56:18;20.67;;;11.43;;
65071;SDS011;51663;52.310;17.016;2024-03-08T11:59:24;17.10;;;10.90;;
65071;SDS011;51663;52.310;17.016;2024-03-08T12:02:28;16.73;;;10.20;;
65071;SDS011;51663;52.310;17.016;2024-03-08T12:05:32;14.30;;;10.20;;
65071;SDS011;51663;52.310;17.016;2024-03-08T12:08:35;19.03;;;10.53;;
65071;SDS011;51663;52.310;17.016;2024-03-08T12:11:38;14.60;;;10.90;;
65071;SDS011;51663;52.310;17.016;2024-03-08T12:14:43;19.63;;;10.67;;
65071;SDS011;51663;52.310;17.016;2024-03-08T12:17:47;16.67;;;11.20;;
65071;SDS011;51663;52.310;17.016;2024-03-08T12:20:50;15.37;;;10.10;;
65071;SDS011;51663;52.310;17.016;2024-03-08T12:24:06;17.87;;;11.13;;
65071;SDS011;51663;52.310;17.016;2024-03-08T12:27:19;17.83;;;11.70;;
65071;SDS011;51663;52.310;17.016;2024-03-08T12:30:23;19.93;;;11.13;;
65071;SDS011;51663;52.310;17.016;2024-03-08T12:33:29;19.73;;;11.07;;
65071;SDS011;51663;52.310;17.016;2024-03-08T12:36:32;23.07;;;12.17;;
65071;SDS011;51663;52.310;17.016;2024-03-08T12:39:35;18.20;;;12.07;;
65071;SDS011;51663;52.310;17.016;2024-03-08T12:42:37;23.57;;;12.70;;
65071;SDS011;51663;52.310;17.016;2024-03-08T12:45:40;20.10;;;12.43;;
65071;SDS011;51663;52.310;17.016;2024-03-08T12:48:44;18.03;;;12.20;;
65071;SDS011;51663;52.310;17.016;2024-03-08T12:51:49;25.73;;;13.27;;
65071;SDS011;51663;52.310;17.016;2024-03-08T12:54:51;19.40;;;13.07;;
65071;SDS011;51663;52.310;17.016;2024-03-08T12:57:54;22.87;;;12.40;;
65071;SDS011;51663;52.310;17.016;2024-03-08T13:00:56;21.87;;;12.73;;
65071;SDS011;51663;52.310;17.016;2024-03-08T13:03:59;17.03;;;11.47;;
65071;SDS011;51663;52.310;17.016;2024-03-08T13:07:04;23.03;;;13.17;;
65071;SDS011;51663;52.310;17.016;2024-03-08T13:10:07;23.43;;;12.60;;
65071;SDS011;51663;52.310;17.016;2024-03-08T13:13:11;19.20;;;12.27;;
65071;SDS011;51663;52.310;17.016;2024-03-08T13:16:19;21.07;;;12.73;;
65071;SDS011;51663;52.310;17.016;2024-03-08T13:19:21;23.57;;;12.60;;
65071;SDS011;51663;52.310;17.016;2024-03-08T13:22:24;19.40;;;13.00;;
65071;SDS011;51663;52.310;17.016;2024-03-08T13:25:26;18.77;;;12.53;;
65071;SDS011;51663;52.310;17.016;2024-03-08T13:28:30;18.57;;;12.87;;
65071;SDS011;51663;52.310;17.016;2024-03-08T13:31:33;38.63;;;14.17;;
65071;SDS011;51663;52.310;17.016;2024-03-08T13:34:41;20.40;;;12.30;;
65071;SDS011;51663;52.310;17.016;2024-03-08T13:37:47;21.57;;;12.23;;
65071;SDS011;51663;52.310;17.016;2024-03-08T13:40:50;19.00;;;11.93;;
65071;SDS011;51663;52.310;17.016;2024-03-08T13:43:53;22.00;;;13.17;;
65071;SDS011;51663;52.310;17.016;2024-03-08T13:46:57;33.13;;;14.80;;
65071;SDS011;51663;52.310;17.016;2024-03-08T13:50:00;18.47;;;11.83;;
65071;SDS011;51663;52.310;17.016;2024-03-08T13:53:02;22.00;;;11.17;;
65071;SDS011;51663;52.310;17.016;2024-03-08T13:56:05;18.17;;;11.30;;
65071;SDS011;51663;52.310;17.016;2024-03-08T13:59:08;23.30;;;12.00;;
65071;SDS011;51663;52.310;17.016;2024-03-08T14:02:11;18.47;;;11.17;;
65071;SDS011;51663;52.310;17.016;2024-03-08T14:05:16;18.93;;;11.00;;
65071;SDS011;51663;52.310;17.016;2024-03-08T14:08:19;21.80;;;12.20;;
65071;SDS011;51663;52.310;17.016;2024-03-08T14:11:22;17.10;;;10.63;;
65071;SDS011;51663;52.310;17.016;2024-03-08T14:14:25;27.63;;;13.03;;
65071;SDS011;51663;52.310;17.016;2024-03-08T14:17:28;18.60;;;11.73;;
65071;SDS011;51663;52.310;17.016;2024-03-08T14:20:35;19.57;;;11.00;;
65071;SDS011;51663;52.310;17.016;2024-03-08T14:23:41;15.40;;;10.03;;
65071;SDS011;51663;52.310;17.016;2024-03-08T14:26:44;17.97;;;11.20;;
65071;SDS011;51663;52.310;17.016;2024-03-08T14:29:51;15.17;;;10.60;;
65071;SDS011;51663;52.310;17.016;2024-03-08T14:32:53;16.73;;;9.97;;
65071;SDS011;51663;52.310;17.016;2024-03-08T14:35:56;19.23;;;11.57;;
65071;SDS011;51663;52.310;17.016;2024-03-08T14:38:59;19.07;;;11.70;;
65071;SDS011;51663;52.310;17.016;2024-03-08T14:42:02;21.13;;;11.27;;
65071;SDS011;51663;52.310;17.016;2024-03-08T14:45:05;17.77;;;12.10;;
65071;SDS011;51663;52.310;17.016;2024-03-08T14:48:09;20.07;;;11.20;;
65071;SDS011;51663;52.310;17.016;2024-03-08T14:51:13;20.03;;;11.30;;
65071;SDS011;51663;52.310;17.016;2024-03-08T14:54:16;17.97;;;11.80;;
65071;SDS011;51663;52.310;17.016;2024-03-08T14:57:19;19.27;;;11.67;;
65071;SDS011;51663;52.310;17.016;2024-03-08T15:00:21;15.23;;;10.77;;
65071;SDS011;51663;52.310;17.016;2024-03-08T15:03:36;18.83;;;11.40;;
65071;SDS011;51663;52.310;17.016;2024-03-08T15:06:41;18.60;;;10.83;;
65071;SDS011;51663;52.310;17.016;2024-03-08T15:09:44;17.67;;;11.67;;
65071;SDS011;51663;52.310;17.016;2024-03-08T15:12:46;22.27;;;11.97;;
65071;SDS011;51663;52.310;17.016;2024-03-08T15:15:53;20.20;;;12.23;;
65071;SDS011;51663;52.310;17.016;2024-03-08T15:18:59;22.60;;;10.70;;
65071;SDS011;51663;52.310;17.016;2024-03-08T15:22:02;20.87;;;10.77;;
65071;SDS011;51663;52.310;17.016;2024-03-08T15:25:04;23.00;;;11.80;;
65071;SDS011;51663;52.310;17.016;2024-03-08T15:28:07;16.77;;;10.83;;
65071;SDS011;51663;52.310;17.016;2024-03-08T15:31:16;31.77;;;13.83;;
65071;SDS011;51663;52.310;17.016;2024-03-08T15:34:21;24.53;;;13.30;;
65071;SDS011;51663;52.310;17.016;2024-03-08T15:37:26;21.13;;;12.73;;
65071;SDS011;51663;52.310;17.016;2024-03-08T15:40:29;31.47;;;14.20;;
65071;SDS011;51663;52.310;17.016;2024-03-08T15:43:33;24.13;;;12.43;;
65071;SDS011;51663;52.310;17.016;2024-03-08T15:46:36;23.50;;;12.60;;
65071;SDS011;51663;52.310;17.016;2024-03-08T15:49:39;24.70;;;12.23;;
65071;SDS011;51663;52.310;17.016;2024-03-08T15:52:45;26.40;;;13.07;;
65071;SDS011;51663;52.310;17.016;2024-03-08T15:55:49;19.30;;;11.77;;
65071;SDS011;51663;52.310;17.016;2024-03-08T15:58:51;23.70;;;12.60;;
65071;SDS011;51663;52.310;17.016;2024-03-08T16:01:55;20.03;;;12.67;;
65071;SDS011;51663;52.310;17.016;2024-03-08T16:04:57;20.10;;;11.70;;
65071;SDS011;51663;52.310;17.016;2024-03-08T16:08:00;27.33;;;14.13;;
65071;SDS011;51663;52.310;17.016;2024-03-08T16:11:03;21.00;;;13.60;;
65071;SDS011;51663;52.310;17.016;2024-03-08T16:14:08;25.53;;;13.43;;
65071;SDS011;51663;52.310;17.016;2024-03-08T16:17:12;23.23;;;13.30;;
65071;SDS011;51663;52.310;17.016;2024-03-08T16:20:15;22.23;;;14.23;;
65071;SDS011;51663;52.310;17.016;2024-03-08T16:23:18;39.27;;;15.83;;
65071;SDS011;51663;52.310;17.016;2024-03-08T16:26:21;23.73;;;13.57;;
65071;SDS011;51663;52.310;17.016;2024-03-08T16:29:26;26.73;;;15.70;;
65071;SDS011;51663;52.310;17.016;2024-03-08T16:32:28;28.93;;;15.80;;
65071;SDS011;51663;52.310;17.016;2024-03-08T16:35:30;28.33;;;14.87;;
65071;SDS011;51663;52.310;17.016;2024-03-08T16:38:33;25.17;;;14.63;;
65071;SDS011;51663;52.310;17.016;2024-03-08T16:41:38;33.57;;;15.60;;
65071;SDS011;51663;52.310;17.016;2024-03-08T16:44:42;27.10;;;15.73;;
65071;SDS011;51663;52.310;17.016;2024-03-08T16:47:45;27.93;;;15.93;;
65071;SDS011;51663;52.310;17.016;2024-03-08T16:50:48;28.87;;;16.03;;
65071;SDS011;51663;52.310;17.016;2024-03-08T16:53:51;33.70;;;16.80;;
65071;SDS011;51663;52.310;17.016;2024-03-08T16:56:55;36.20;;;17.43;;
65071;SDS011;51663;52.310;17.016;2024-03-08T16:59:57;40.57;;;21.63;;
65071;SDS011;51663;52.310;17.016;2024-03-08T17:03:00;53.37;;;26.50;;
65071;SDS011;51663;52.310;17.016;2024-03-08T17:06:03;60.10;;;28.47;;
65071;SDS011;51663;52.310;17.016;2024-03-08T17:09:07;59.67;;;26.13;;
65071;SDS011;51663;52.310;17.016;2024-03-08T17:12:13;54.33;;;28.70;;
65071;SDS011;51663;52.310;17.016;2024-03-08T17:15:21;52.30;;;26.23;;
65071;SDS011;51663;52.310;17.016;2024-03-08T17:18:24;50.00;;;25.03;;
65071;SDS011;51663;52.310;17.016;2024-03-08T17:21:27;37.47;;;19.03;;
65071;SDS011;51663;52.310;17.016;2024-03-08T17:24:30;39.53;;;21.03;;
65071;SDS011;51663;52.310;17.016;2024-03-08T17:27:33;39.70;;;19.57;;
65071;SDS011;51663;52.310;17.016;2024-03-08T17:30:37;43.43;;;20.43;;
65071;SDS011;51663;52.310;17.016;2024-03-08T17:33:42;35.83;;;19.57;;
65071;SDS011;51663;52.310;17.016;2024-03-08T17:36:47;37.63;;;19.40;;
65071;SDS011;51663;52.310;17.016;2024-03-08T17:39:51;40.93;;;19.50;;
65071;SDS011;51663;52.310;17.016;2024-03-08T17:42:59;39.73;;;19.93;;
65071;SDS011;51663;52.310;17.016;2024-03-08T17:46:03;47.27;;;19.70;;
65071;SDS011;51663;52.310;17.016;2024-03-08T17:49:06;33.23;;;18.10;;